Terminal Aerodrome Forecast
Issued by NWS

Home | Current Version | Previous Version | Text Only | Print | Product List | Glossary On
Versions: 1 2 3 4 5 6 7 8 9 10 11 12 13 14 15 16 17
000
FTUS43 KGRB 170500
TAFMTW
TAF
KMTW 170522Z 1706/1806 30015G20KT P6SM BKN025 OVC040
      TEMPO 1706/1709 SCT025 BKN040
     FM170900 30014KT P6SM OVC025
     FM171400 30015G22KT P6SM SCT020 BKN035
     FM171900 30010G15KT P6SM SCT035 BKN040
     FM180000 34008KT P6SM BKN035
     FM180300 34007KT P6SM SCT040=

USA.gov is the U.S. government's official web portal to all federal, state and local government web resources and services.